Ulman, Missouri
Current Conditions -  °F | °C
As of 8:35 PM on Wednesday 22 Oct 2014 (Local Time) from KAIZ Reporting Station
Clear Clear  
Wind Chill: 11°   Ceiling: Unl
Heat Index: 11°   Visibility: 10mi
Dew Point:   Wind: 3mph
Humidity: 76%   Direction: 120°ESE
Pressure: 30.18"   Gusts: NA
Location:  38.15°N, 92.44°W
Report Text: KAIZ 230135Z AUTO 12003KT 10SM CLR 11/07 A3018 RMK AO1
Loading
Personal Weather Stations






























Interactive Weather Map
Tropical Storm Tracking
New forecast layout! Learn more

10-Day Weather Forecast

Advertisements
Track Severe Weather on mobile